WN44 weather

Podeweltz Airport
Merrill, Wisconsin, United States

Public forecast

Using degrees Fahrenheit for public forecast. Weather courtesy of forecast.io.

Closest aviation weather report (METAR) to Podeweltz Airport

Closest report is Merrill Municipal Airport, 6.6 nm (12.1 km) WSW. Retrieved 2020/02/22 22:35 UTC (12 minutes ago):

KRRL 222235Z AUTO 21005KT 10SM CLR 06/M03 A2992 RMK AO2 T00571035 TSNO

Closest aviation forecast (TAF) to Podeweltz Airport

Closest forecast is Wausau Downtown Airport, 19.0 nm (35.1 km) S. Retrieved 2020/02/22 18:27 UTC (4 hours ago):

TAF KAUW 221723Z 2218/2318 21006KT P6SM SKC FM230800 21005KT 5SM BR SCT006 TEMPO 2310/2314 3SM BR BKN006 FM231400 24006KT 5SM BR SCT006 WS020/27035KT FM231600 25008G17KT P6SM SCT007 WS020/28035KT